createdAt,value
2018-08-20T00:02:06.131Z,53.30
2018-08-20T00:04:40.138Z,53.30
2018-08-20T00:07:08.741Z,53.20
2018-08-20T00:09:42.842Z,53.20
2018-08-20T00:12:11.422Z,53.10
2018-08-20T00:14:40.006Z,53.10
2018-08-20T00:17:08.908Z,53.20
2018-08-20T00:19:37.560Z,53.30
2018-08-20T00:22:06.389Z,53.30
2018-08-20T00:24:34.975Z,53.20
2018-08-20T00:27:03.821Z,53.20
2018-08-20T00:29:35.570Z,53.30
2018-08-20T00:32:04.143Z,53.40
2018-08-20T00:34:32.726Z,53.30
2018-08-20T00:37:01.260Z,53.30
2018-08-20T00:39:29.928Z,53.30
2018-08-20T00:41:58.536Z,53.40
2018-08-20T00:44:27.103Z,53.40
2018-08-20T00:46:55.772Z,53.40
2018-08-20T00:49:24.380Z,53.30
2018-08-20T00:51:52.963Z,53.50
2018-08-20T00:54:21.530Z,53.60
2018-08-20T00:56:50.162Z,53.70
2018-08-20T00:59:18.707Z,53.60
2018-08-20T01:01:47.223Z,53.70
2018-08-20T01:04:15.801Z,53.60
2018-08-20T01:06:44.339Z,53.70
2018-08-20T01:09:12.936Z,53.80
2018-08-20T01:11:41.445Z,53.70
2018-08-20T01:14:10.071Z,53.70
2018-08-20T01:16:38.677Z,53.60
2018-08-20T01:19:07.259Z,53.60
2018-08-20T01:21:37.853Z,53.60
2018-08-20T01:24:06.674Z,53.60
2018-08-20T01:26:36.380Z,53.70
2018-08-20T01:29:05.088Z,53.50
2018-08-20T01:31:33.793Z,53.60
2018-08-20T01:34:02.492Z,53.60
2018-08-20T01:36:31.091Z,53.70
2018-08-20T01:38:59.703Z,53.80
2018-08-20T01:41:30.567Z,53.70
2018-08-20T01:43:59.284Z,53.70
2018-08-20T01:46:27.903Z,54.30
2018-08-20T01:48:56.723Z,53.60
2018-08-20T01:51:26.348Z,53.80
2018-08-20T01:53:55.016Z,53.90
2018-08-20T01:56:23.736Z,54.00
2018-08-20T01:58:52.378Z,53.90
2018-08-20T02:01:21.611Z,53.90
2018-08-20T02:03:50.303Z,54.00
2018-08-20T02:06:19.497Z,54.00
2018-08-20T02:08:48.161Z,54.00
2018-08-20T02:13:45.099Z,54.10
2018-08-20T02:16:13.883Z,54.30
2018-08-20T02:18:42.677Z,54.40
2018-08-20T02:21:11.258Z,54.50
2018-08-20T02:23:39.879Z,54.70
2018-08-20T02:26:08.566Z,54.80
2018-08-20T02:28:37.213Z,54.90
2018-08-20T02:31:06.104Z,54.90
2018-08-20T02:33:34.856Z,55.00
2018-08-20T02:36:03.467Z,55.00
2018-08-20T02:38:32.056Z,55.00
2018-08-20T02:41:00.631Z,55.10
2018-08-20T02:43:29.203Z,55.10
2018-08-20T02:45:57.841Z,55.30
2018-08-20T02:48:26.431Z,55.40
2018-08-20T02:50:55.009Z,55.50
2018-08-20T02:53:23.647Z,55.50
2018-08-20T02:55:52.131Z,55.50
2018-08-20T02:58:20.752Z,55.60
2018-08-20T03:03:18.690Z,55.70
2018-08-20T03:05:48.299Z,55.60
2018-08-20T03:08:16.821Z,55.60
2018-08-20T03:10:45.368Z,55.70
2018-08-20T03:13:13.889Z,55.90
2018-08-20T03:15:42.997Z,56.10
2018-08-20T03:18:11.790Z,56.20
2018-08-20T03:20:40.328Z,56.40
2018-08-20T03:23:08.842Z,56.60
2018-08-20T03:25:37.438Z,56.50
2018-08-20T03:28:06.036Z,56.70
2018-08-20T03:30:34.549Z,56.90
2018-08-20T03:33:03.175Z,57.00
2018-08-20T03:35:31.719Z,57.00
2018-08-20T03:38:00.389Z,57.10
2018-08-20T03:40:29.016Z,57.30
2018-08-20T03:42:58.616Z,58.10
2018-08-20T03:47:55.372Z,57.50
2018-08-20T03:50:23.924Z,57.50
2018-08-20T03:52:52.498Z,57.60
2018-08-20T03:55:21.024Z,57.70
2018-08-20T03:57:49.518Z,57.90
2018-08-20T04:00:22.826Z,58.00
2018-08-20T04:02:51.568Z,58.00
2018-08-20T04:05:20.168Z,58.10
2018-08-20T04:07:48.642Z,58.60
2018-08-20T04:12:46.501Z,59.00
2018-08-20T04:15:15.070Z,58.70
2018-08-20T04:17:43.580Z,58.80
2018-08-20T04:20:12.487Z,59.00
2018-08-20T04:22:40.999Z,59.10
2018-08-20T04:25:09.481Z,59.00
2018-08-20T04:27:38.031Z,58.70
2018-08-20T04:30:06.742Z,58.80
2018-08-20T04:32:35.292Z,58.80
2018-08-20T04:37:32.253Z,58.40
2018-08-20T04:40:01.626Z,58.50
2018-08-20T04:42:30.806Z,58.70
2018-08-20T04:45:00.015Z,58.60
2018-08-20T04:47:28.559Z,58.60
2018-08-20T04:49:58.208Z,58.70
2018-08-20T04:52:26.765Z,58.80
2018-08-20T04:54:55.252Z,58.80
2018-08-20T04:57:23.870Z,58.70
2018-08-20T04:59:52.413Z,58.90
2018-08-20T05:02:20.998Z,59.00
2018-08-20T05:04:49.518Z,58.90
2018-08-20T05:07:18.051Z,58.90
2018-08-20T05:09:46.584Z,58.90
2018-08-20T05:14:43.272Z,58.90
2018-08-20T05:17:11.831Z,59.00
2018-08-20T05:19:40.385Z,58.90
2018-08-20T05:24:38.516Z,58.80
2018-08-20T05:27:08.900Z,58.50
2018-08-20T05:29:38.055Z,58.50
2018-08-20T05:32:07.003Z,58.40
2018-08-20T05:37:05.587Z,58.30
2018-08-20T05:39:34.265Z,58.10
2018-08-20T05:42:05.033Z,57.90
2018-08-20T05:44:33.754Z,57.90
2018-08-20T05:47:02.369Z,57.90
2018-08-20T05:49:30.946Z,57.80
2018-08-20T05:51:59.804Z,57.60
2018-08-20T05:54:28.361Z,57.40
2018-08-20T05:56:57.007Z,57.50
2018-08-20T05:59:25.544Z,57.30
2018-08-20T06:01:54.073Z,57.30
2018-08-20T06:04:22.710Z,57.50
2018-08-20T06:06:51.439Z,57.60
2018-08-20T06:09:20.072Z,57.50
2018-08-20T06:11:50.239Z,57.50
2018-08-20T06:17:09.126Z,57.60
2018-08-20T06:19:39.141Z,57.60
2018-08-20T06:22:07.811Z,57.70
2018-08-20T06:24:36.471Z,57.80
2018-08-20T06:27:05.497Z,58.10
2018-08-20T06:30:31.281Z,58.10
2018-08-20T06:33:00.866Z,58.00
2018-08-20T06:35:29.807Z,58.40
2018-08-20T06:37:58.355Z,58.50
2018-08-20T06:40:26.920Z,58.40
2018-08-20T06:42:55.467Z,58.30
2018-08-20T06:45:24.036Z,58.20
2018-08-20T06:47:52.531Z,57.90
2018-08-20T06:50:21.083Z,57.70
2018-08-20T06:52:49.695Z,57.70
2018-08-20T06:55:19.538Z,57.50
2018-08-20T06:57:48.091Z,57.40
2018-08-20T07:00:17.331Z,57.00
2018-08-20T07:02:45.903Z,57.00
2018-08-20T07:07:44.410Z,57.70
2018-08-20T07:10:14.855Z,56.90
2018-08-20T07:12:43.815Z,57.00
2018-08-20T07:17:42.824Z,57.00
2018-08-20T07:20:14.323Z,57.20
2018-08-20T07:22:43.050Z,57.20
2018-08-20T07:25:11.949Z,57.00
2018-08-20T07:30:10.357Z,56.80
2018-08-20T07:32:39.509Z,56.80
2018-08-20T07:35:08.145Z,56.70
2018-08-20T07:37:36.775Z,56.40
2018-08-20T07:40:07.885Z,56.40
2018-08-20T07:42:36.528Z,56.30
2018-08-20T07:47:33.280Z,56.20
2018-08-20T07:50:01.805Z,57.00
2018-08-20T07:52:31.083Z,56.30
2018-08-20T07:54:59.583Z,56.20
2018-08-20T07:57:28.153Z,56.30
2018-08-20T07:59:56.793Z,55.90
2018-08-20T08:02:25.439Z,55.70
2018-08-20T08:04:54.043Z,55.80
2018-08-20T08:07:22.604Z,55.80
2018-08-20T08:09:51.152Z,55.70
2018-08-20T08:12:19.703Z,55.60
2018-08-20T08:14:48.908Z,55.50
2018-08-20T08:17:17.559Z,55.70
2018-08-20T08:19:46.388Z,55.80
2018-08-20T08:22:15.090Z,55.60
2018-08-20T08:24:43.739Z,55.70
2018-08-20T08:27:12.343Z,55.40
2018-08-20T08:29:41.280Z,55.10
2018-08-20T08:32:10.131Z,55.70
2018-08-20T08:34:39.053Z,55.20
2018-08-20T08:37:07.583Z,55.20
2018-08-20T08:39:37.323Z,55.10
2018-08-20T08:42:06.013Z,55.30
2018-08-20T08:47:04.528Z,55.60
2018-08-20T08:49:33.485Z,55.80
2018-08-20T08:54:30.286Z,56.00
2018-08-20T08:56:58.951Z,56.10
2018-08-20T08:59:27.509Z,56.00
2018-08-20T09:01:56.895Z,55.90
2018-08-20T09:04:25.474Z,55.70
2018-08-20T09:06:54.059Z,55.60
2018-08-20T09:09:22.641Z,55.70
2018-08-20T09:11:51.839Z,55.80
2018-08-20T09:14:20.506Z,56.00
2018-08-20T09:16:49.128Z,56.10
2018-08-20T09:19:17.695Z,56.80
2018-08-20T09:21:46.474Z,58.00
2018-08-20T09:24:15.255Z,58.60
2018-08-20T09:26:44.224Z,59.00
2018-08-20T09:29:12.822Z,59.60
2018-08-20T09:31:41.351Z,59.90
2018-08-20T09:34:10.973Z,59.90
2018-08-20T09:36:39.614Z,59.80
2018-08-20T09:39:08.184Z,59.50
2018-08-20T09:41:36.670Z,59.90
2018-08-20T09:44:05.359Z,59.90
2018-08-20T09:46:35.124Z,60.00
2018-08-20T09:49:03.623Z,59.50
2018-08-20T09:51:32.510Z,59.70
2018-08-20T09:54:01.076Z,60.00
2018-08-20T09:56:29.726Z,59.10
2018-08-20T09:58:59.288Z,59.50
2018-08-20T10:01:27.808Z,58.70
2018-08-20T10:06:25.399Z,59.20
2018-08-20T10:08:54.031Z,59.70
2018-08-20T10:11:22.595Z,59.20
2018-08-20T10:13:51.207Z,59.00
2018-08-20T10:16:20.784Z,59.10
2018-08-20T10:18:49.270Z,59.60
2018-08-20T10:21:17.871Z,60.00
2018-08-20T10:23:46.739Z,59.70
2018-08-20T10:26:15.399Z,59.80
2018-08-20T10:28:43.993Z,60.00
2018-08-20T10:31:12.505Z,59.90
2018-08-20T10:33:41.068Z,59.60
2018-08-20T10:36:09.703Z,59.30
2018-08-20T10:38:38.260Z,59.80
2018-08-20T10:41:06.805Z,59.40
2018-08-20T10:43:35.444Z,59.20
2018-08-20T10:46:10.953Z,59.30
2018-08-20T10:48:40.078Z,59.40
2018-08-20T10:51:08.635Z,60.00
2018-08-20T10:53:37.352Z,60.00
2018-08-20T10:56:07.646Z,60.20
2018-08-20T10:58:36.191Z,60.40
2018-08-20T11:01:05.444Z,59.90
2018-08-20T11:03:34.196Z,60.20
2018-08-20T11:06:02.825Z,60.20
2018-08-20T11:08:31.349Z,59.70
2018-08-20T11:11:00.097Z,59.30
2018-08-20T11:15:56.938Z,60.20
2018-08-20T11:18:25.684Z,60.40
2018-08-20T11:20:54.385Z,61.40
2018-08-20T11:23:22.969Z,61.40
2018-08-20T11:25:51.568Z,61.90
2018-08-20T11:28:20.308Z,61.40
2018-08-20T11:30:48.880Z,61.60
2018-08-20T11:33:18.174Z,61.80
2018-08-20T11:35:47.799Z,62.50
2018-08-20T11:38:16.407Z,63.10
2018-08-20T11:40:46.223Z,63.80
2018-08-20T11:43:14.794Z,63.10
2018-08-20T11:45:43.451Z,63.90
2018-08-20T11:48:11.936Z,63.70
2018-08-20T11:50:40.441Z,62.50
2018-08-20T11:53:09.939Z,61.40
2018-08-20T11:55:38.516Z,60.20
2018-08-20T11:58:07.132Z,59.60
2018-08-20T12:00:35.732Z,59.70
2018-08-20T12:03:04.351Z,59.00
2018-08-20T12:05:33.008Z,60.00
2018-08-20T12:08:01.646Z,60.20
2018-08-20T12:10:30.306Z,59.20
2018-08-20T12:12:59.359Z,59.50
2018-08-20T12:15:29.312Z,59.60
2018-08-20T12:17:58.195Z,59.30
2018-08-20T12:20:26.770Z,60.00
2018-08-20T12:22:56.771Z,59.60
2018-08-20T12:25:25.438Z,60.10
2018-08-20T12:27:54.035Z,60.00
2018-08-20T12:30:22.544Z,59.10
2018-08-20T12:37:47.473Z,58.10
2018-08-20T12:42:44.209Z,57.50
2018-08-20T12:45:12.915Z,57.40
2018-08-20T12:47:41.545Z,56.70
2018-08-20T12:50:10.113Z,56.60
2018-08-20T12:52:38.735Z,56.20
2018-08-20T12:55:07.447Z,56.50
2018-08-20T12:57:36.108Z,56.10
2018-08-20T13:00:05.529Z,55.70
2018-08-20T13:02:34.107Z,55.00
2018-08-20T13:05:02.652Z,54.70
2018-08-20T13:07:33.213Z,55.20
2018-08-20T13:10:01.849Z,55.20
2018-08-20T13:12:30.468Z,54.90
2018-08-20T13:15:00.030Z,55.00
2018-08-20T13:17:28.630Z,54.70
2018-08-20T13:19:57.781Z,54.80
2018-08-20T13:22:26.343Z,54.00
2018-08-20T13:24:56.831Z,54.10
2018-08-20T13:27:25.435Z,53.50
2018-08-20T13:29:54.032Z,53.80
2018-08-20T13:32:22.592Z,53.50
2018-08-20T13:34:51.169Z,53.60
2018-08-20T13:37:19.831Z,53.70
2018-08-20T13:39:48.495Z,53.40
2018-08-20T13:44:46.488Z,53.00
2018-08-20T13:47:15.545Z,52.80
2018-08-20T13:49:44.092Z,52.30
2018-08-20T13:52:12.767Z,52.10
2018-08-20T13:54:41.375Z,52.50
2018-08-20T13:57:10.661Z,52.70
2018-08-20T13:59:39.283Z,53.00
2018-08-20T14:02:07.858Z,53.10
2018-08-20T14:04:36.399Z,52.70
2018-08-20T14:07:05.032Z,52.20
2018-08-20T14:09:33.577Z,51.90
2018-08-20T14:12:02.090Z,51.90
2018-08-20T14:14:30.739Z,51.80
2018-08-20T14:16:59.362Z,51.80
2018-08-20T14:19:28.006Z,51.90
2018-08-20T14:21:56.565Z,51.80
2018-08-20T14:26:53.316Z,51.90
2018-08-20T14:31:50.033Z,52.30
2018-08-20T14:34:18.754Z,52.30
2018-08-20T14:39:16.470Z,52.00
2018-08-20T14:41:45.027Z,52.20
2018-08-20T14:44:13.592Z,51.60
2018-08-20T14:49:10.429Z,51.30
2018-08-20T14:51:40.372Z,51.00
2018-08-20T14:56:39.068Z,50.70
2018-08-20T14:59:07.985Z,50.70
2018-08-20T15:01:37.370Z,50.60
2018-08-20T15:04:07.713Z,50.80
2018-08-20T15:07:12.645Z,51.60
2018-08-20T15:09:41.824Z,50.60
2018-08-20T15:12:11.170Z,50.60
2018-08-20T15:14:40.090Z,50.80
2018-08-20T15:17:09.348Z,51.00
2018-08-20T15:19:38.098Z,51.10
2018-08-20T15:22:06.755Z,51.10
2018-08-20T15:24:35.303Z,51.30
2018-08-20T15:27:05.839Z,52.20
2018-08-20T15:29:34.408Z,51.60
2018-08-20T15:32:03.028Z,51.90
2018-08-20T15:34:31.903Z,51.40
2018-08-20T15:37:00.507Z,51.20
2018-08-20T15:39:29.081Z,51.20
2018-08-20T15:41:57.729Z,51.20
2018-08-20T15:44:26.249Z,51.00
2018-08-20T15:46:54.822Z,51.20
2018-08-20T15:49:23.484Z,50.90
2018-08-20T15:51:52.987Z,50.90
2018-08-20T15:54:21.552Z,51.60
2018-08-20T15:56:50.491Z,52.30
2018-08-20T15:59:19.176Z,52.60
2018-08-20T16:01:47.745Z,53.00
2018-08-20T16:04:16.467Z,53.20
2018-08-20T16:06:45.236Z,53.30
2018-08-20T16:09:14.028Z,53.30
2018-08-20T16:11:42.607Z,53.50
2018-08-20T16:14:11.423Z,53.50
2018-08-20T16:16:40.056Z,53.70
2018-08-20T16:19:08.651Z,53.70
2018-08-20T16:21:37.258Z,53.60
2018-08-20T16:24:05.945Z,53.70
2018-08-20T16:26:34.595Z,53.70
2018-08-20T16:29:03.227Z,53.80
2018-08-20T16:31:32.397Z,53.50
2018-08-20T16:34:01.171Z,53.30
2018-08-20T16:36:29.806Z,53.30
2018-08-20T16:38:58.388Z,53.50
2018-08-20T16:41:26.968Z,53.10
2018-08-20T16:43:55.588Z,53.00
2018-08-20T16:46:24.136Z,53.10
2018-08-20T16:48:52.899Z,53.10
2018-08-20T16:53:49.657Z,53.30
2018-08-20T16:58:46.396Z,53.30
2018-08-20T17:01:17.375Z,53.30
2018-08-20T17:03:46.276Z,53.30
2018-08-20T17:06:15.018Z,53.30
2018-08-20T17:08:44.737Z,53.30
2018-08-20T17:13:42.832Z,53.70
2018-08-20T17:18:41.024Z,53.70
2018-08-20T17:23:39.803Z,54.10
2018-08-20T17:26:08.692Z,54.10
2018-08-20T17:28:38.168Z,54.60
2018-08-20T17:31:08.805Z,55.20
2018-08-20T17:33:38.638Z,54.70
2018-08-20T17:36:08.258Z,54.70
2018-08-20T17:38:36.920Z,54.70
2018-08-20T17:41:09.235Z,54.50
2018-08-20T17:43:37.918Z,54.50
2018-08-20T17:46:06.606Z,54.80
2018-08-20T18:17:05.419Z,55.40
2018-08-20T18:19:34.020Z,56.40
2018-08-20T18:22:02.521Z,57.10
2018-08-20T18:26:59.424Z,56.20
2018-08-20T18:29:27.980Z,55.70
2018-08-20T18:31:59.727Z,55.20
2018-08-20T18:36:57.523Z,54.90
2018-08-20T18:39:26.455Z,54.30
2018-08-20T18:42:03.844Z,54.20
2018-08-20T18:44:32.491Z,53.80
2018-08-20T18:47:01.946Z,53.90
2018-08-20T18:49:31.231Z,53.70
2018-08-20T18:52:07.201Z,53.90
2018-08-20T18:54:40.639Z,53.90
2018-08-20T18:57:09.348Z,53.90
2018-08-20T18:59:41.681Z,53.70
2018-08-20T19:02:20.893Z,53.40
2018-08-20T19:04:49.881Z,53.40
2018-08-20T19:07:19.630Z,53.50
2018-08-20T19:09:52.085Z,53.40
2018-08-20T19:12:21.519Z,53.30
2018-08-20T19:14:50.116Z,53.10
2018-08-20T19:17:24.075Z,52.60
2018-08-20T19:19:52.593Z,52.60
2018-08-20T19:22:26.296Z,52.80
2018-08-20T19:24:55.092Z,53.00
2018-08-20T19:27:29.503Z,53.10
2018-08-20T19:29:58.809Z,53.20
2018-08-20T19:32:27.354Z,53.00
2018-08-20T19:34:55.871Z,53.10
2018-08-20T19:37:24.375Z,53.10
2018-08-20T19:39:52.933Z,53.30
2018-08-20T19:42:26.825Z,53.00
2018-08-20T19:44:55.344Z,53.10
2018-08-20T19:47:26.273Z,53.20
2018-08-20T19:49:54.911Z,53.80
2018-08-20T19:52:23.490Z,53.30
2018-08-20T19:54:57.125Z,54.00
2018-08-20T19:57:25.832Z,53.30
2018-08-20T19:59:54.649Z,53.60
2018-08-20T20:02:24.309Z,53.50
2018-08-20T20:04:52.983Z,53.30
2018-08-20T20:07:22.593Z,53.20
2018-08-20T20:09:51.138Z,53.20
2018-08-20T20:12:20.203Z,53.30
2018-08-20T20:14:48.900Z,53.50
2018-08-20T20:17:18.119Z,53.60
2018-08-20T20:19:49.061Z,53.60
2018-08-20T20:22:18.194Z,53.70
2018-08-20T20:24:46.780Z,53.60
2018-08-20T20:27:15.426Z,53.60
2018-08-20T20:29:44.761Z,53.60
2018-08-20T20:32:13.370Z,53.80
2018-08-20T20:34:42.032Z,53.80
2018-08-20T20:37:10.627Z,53.80
2018-08-20T20:39:44.899Z,53.70
2018-08-20T20:42:14.120Z,53.90
2018-08-20T20:44:42.673Z,54.00
2018-08-20T20:47:11.352Z,53.80
2018-08-20T20:49:40.072Z,53.80
2018-08-20T20:52:08.676Z,54.30
2018-08-20T20:54:37.272Z,54.40
2018-08-20T20:57:06.395Z,53.80
2018-08-20T20:59:35.064Z,53.70
2018-08-20T21:02:03.749Z,53.70
2018-08-20T21:04:34.434Z,53.80
2018-08-20T21:07:03.059Z,53.70
2018-08-20T21:09:51.139Z,53.90
2018-08-20T21:12:19.680Z,54.20
2018-08-20T21:14:48.247Z,54.40
2018-08-20T21:17:17.221Z,54.30
2018-08-20T21:19:46.137Z,54.40
2018-08-20T21:22:17.635Z,54.30
2018-08-20T21:25:49.938Z,54.40
2018-08-20T21:28:19.204Z,54.50
2018-08-20T21:30:47.993Z,54.80
2018-08-20T21:33:16.541Z,54.90
2018-08-20T21:35:45.715Z,54.90
2018-08-20T21:38:14.366Z,54.80
2018-08-20T21:40:44.376Z,54.80
2018-08-20T21:43:12.929Z,54.70
2018-08-20T21:45:41.809Z,54.60
2018-08-20T21:48:10.583Z,54.60
2018-08-20T21:50:39.214Z,54.70
2018-08-20T21:55:36.212Z,54.70
2018-08-20T21:58:06.271Z,54.60
2018-08-20T22:00:34.905Z,54.70
2018-08-20T22:03:05.380Z,54.90
2018-08-20T22:05:34.854Z,54.70
2018-08-20T22:08:03.424Z,54.70
2018-08-20T22:10:38.828Z,54.80
2018-08-20T22:15:38.014Z,54.90
2018-08-20T22:18:06.945Z,54.90
2018-08-20T22:20:35.532Z,55.00
2018-08-20T22:23:24.672Z,55.00
2018-08-20T22:28:05.399Z,55.10
2018-08-20T22:30:36.095Z,55.10
2018-08-20T22:33:11.662Z,55.20
2018-08-20T22:35:40.368Z,55.20
2018-08-20T22:38:08.923Z,55.20
2018-08-20T22:40:37.517Z,55.20
2018-08-20T22:43:06.183Z,55.20
2018-08-20T22:45:34.722Z,55.40
2018-08-20T22:48:06.489Z,55.40
2018-08-20T22:50:35.093Z,55.50
2018-08-20T22:55:32.170Z,55.50
2018-08-20T22:58:10.365Z,55.60
2018-08-20T23:00:38.931Z,55.60
2018-08-20T23:03:07.688Z,55.60
2018-08-20T23:05:37.495Z,55.60
2018-08-20T23:08:10.191Z,56.20
2018-08-20T23:10:41.803Z,55.50
2018-08-20T23:13:10.370Z,55.50
2018-08-20T23:15:38.905Z,55.50
2018-08-20T23:18:07.639Z,56.20
2018-08-20T23:20:36.151Z,55.60
2018-08-20T23:23:05.521Z,55.80
2018-08-20T23:25:34.112Z,55.50
2018-08-20T23:28:02.728Z,55.40
2018-08-20T23:30:31.348Z,55.20
2018-08-20T23:33:00.067Z,55.40
2018-08-20T23:35:29.103Z,55.50
2018-08-20T23:37:57.889Z,55.60
2018-08-20T23:40:26.959Z,55.50
2018-08-20T23:42:55.620Z,55.60
2018-08-20T23:45:24.196Z,55.50
2018-08-20T23:47:52.765Z,55.60
2018-08-20T23:50:21.384Z,55.80
2018-08-20T23:52:49.899Z,56.50
2018-08-20T23:55:18.516Z,55.80
